Time;durP1;ratioP1;P1;durP2;ratioP2;P2;SDS_P1;SDS_P2;PMS_P1;PMS_P2;Temp;Humidity;BMP_temperature;BMP_pressure;BME280_temperature;BME280_humidity;BME280_pressure;Samples;Min_cycle;Max_cycle;Signal;HPM_P1;HPM_P2
2022/04/26 03:37:34;;;;;;;16.98;9.43;;;;;;;;;;5109021;28;20469;-77
2022/04/26 03:40:00;;;;;;;18.05;9.63;;;;;;;;;;5108647;28;20127;-75
2022/04/26 03:42:26;;;;;;;17.80;9.80;;;;;;;;;;5108887;28;20441;-77
2022/04/26 03:44:52;;;;;;;16.10;9.25;;;;;;;;;;5109098;28;20126;-79
2022/04/26 03:47:18;;;;;;;16.35;8.90;;;;;;;;;;5109110;28;20478;-77
2022/04/26 03:49:44;;;;;;;16.02;9.68;;;;;;;;;;5108456;28;20031;-79
2022/04/26 03:52:10;;;;;;;18.60;10.10;;;;;;;;;;5108257;28;20031;-75
2022/04/26 03:54:36;;;;;;;18.45;8.70;;;;;;;;;;5108660;28;20074;-79
2022/04/26 03:57:03;;;;;;;18.08;9.13;;;;;;;;;;5108811;28;20055;-77
2022/04/26 03:59:29;;;;;;;19.70;9.10;;;;;;;;;;5111743;28;20063;-79
2022/04/26 04:01:56;;;;;;;22.30;8.68;;;;;;;;;;5109471;27;20047;-79
2022/04/26 04:04:22;;;;;;;18.38;9.05;;;;;;;;;;5112874;28;20046;-80
2022/04/26 04:06:48;;;;;;;14.85;8.38;;;;;;;;;;5094207;28;20040;-77
2022/04/26 04:09:14;;;;;;;22.00;8.90;;;;;;;;;;5112220;28;20109;-80
2022/04/26 04:11:40;;;;;;;16.30;8.38;;;;;;;;;;5095732;28;20062;-78
2022/04/26 04:14:06;;;;;;;18.83;8.88;;;;;;;;;;5095551;28;20088;-78
2022/04/26 04:16:32;;;;;;;14.25;8.15;;;;;;;;;;5095660;28;20540;-78
2022/04/26 04:21:45;;;;;;;20.05;9.02;;;;;;;;;;5112371;28;20043;-80
2022/04/26 04:24:11;;;;;;;17.05;8.57;;;;;;;;;;5095094;28;20857;-80
2022/04/26 04:26:37;;;;;;;22.40;8.80;;;;;;;;;;5111991;28;20040;-80
2022/04/26 04:29:05;;;;;;;16.92;8.30;;;;;;;;;;5112471;28;20062;-78
2022/04/26 04:31:32;;;;;;;15.65;8.15;;;;;;;;;;5112175;28;20027;-79
2022/04/26 04:33:58;;;;;;;15.70;8.00;;;;;;;;;;5112214;28;20035;-79
2022/04/26 04:36:24;;;;;;;17.75;8.07;;;;;;;;;;5113036;28;20043;-80
2022/04/26 04:38:50;;;;;;;16.55;7.43;;;;;;;;;;5095002;28;20050;-80
2022/04/26 04:41:17;;;;;;;20.00;8.30;;;;;;;;;;5111080;28;20092;-78
2022/04/26 04:43:44;;;;;;;13.60;8.05;;;;;;;;;;5112043;28;20399;-79
2022/04/26 04:46:10;;;;;;;22.13;7.57;;;;;;;;;;5111641;28;20039;-80
2022/04/26 04:48:37;;;;;;;17.50;8.15;;;;;;;;;;5113343;28;20613;-81
2022/04/26 04:51:03;;;;;;;16.25;7.78;;;;;;;;;;5111702;28;20035;-80
2022/04/26 04:53:29;;;;;;;16.08;8.57;;;;;;;;;;5111731;28;20482;-81
2022/04/26 04:55:55;;;;;;;19.63;8.40;;;;;;;;;;5111789;28;20055;-81
2022/04/26 04:58:21;;;;;;;17.17;7.75;;;;;;;;;;5112565;28;20059;-78
2022/04/26 05:00:47;;;;;;;16.02;7.75;;;;;;;;;;5113022;28;20039;-81
2022/04/26 05:03:14;;;;;;;17.77;7.50;;;;;;;;;;5111271;28;20035;-81
2022/04/26 05:05:40;;;;;;;15.85;7.38;;;;;;;;;;5111535;28;20047;-80
2022/04/26 05:08:10;;;;;;;17.58;6.70;;;;;;;;;;5111760;28;20510;-81
2022/04/26 05:10:36;;;;;;;16.48;7.00;;;;;;;;;;5111990;28;20479;-80
2022/04/26 05:13:03;;;;;;;14.00;6.47;;;;;;;;;;5112838;28;20042;-79
2022/04/26 05:15:29;;;;;;;17.90;6.95;;;;;;;;;;5094228;28;20032;-80
2022/04/26 05:17:55;;;;;;;14.05;5.63;;;;;;;;;;5111655;28;20070;-83
2022/04/26 05:20:22;;;;;;;16.13;5.72;;;;;;;;;;5094078;28;20071;-80
2022/04/26 05:25:37;;;;;;;13.75;5.43;;;;;;;;;;5110994;28;20051;-80
2022/04/26 05:28:04;;;;;;;15.43;6.15;;;;;;;;;;5112263;28;20048;-80
2022/04/26 05:30:30;;;;;;;16.15;6.18;;;;;;;;;;5110826;28;20084;-79
2022/04/26 05:32:56;;;;;;;13.93;6.03;;;;;;;;;;5111383;28;20475;-82
2022/04/26 05:35:22;;;;;;;13.00;5.70;;;;;;;;;;5094209;28;20035;-78
2022/04/26 05:37:48;;;;;;;17.52;6.38;;;;;;;;;;5111792;28;20051;-81
2022/04/26 05:40:15;;;;;;;13.07;5.80;;;;;;;;;;5111182;28;20541;-81
2022/04/26 05:42:41;;;;;;;16.98;5.70;;;;;;;;;;5113431;28;20043;-79
2022/04/26 05:45:07;;;;;;;13.15;6.15;;;;;;;;;;5114285;28;20048;-78
2022/04/26 05:47:33;;;;;;;15.18;5.97;;;;;;;;;;5112129;28;20068;-80
2022/04/26 05:50:00;;;;;;;14.02;5.88;;;;;;;;;;5098063;28;20093;-80
2022/04/26 05:52:26;;;;;;;12.98;5.57;;;;;;;;;;5112504;28;20039;-79
2022/04/26 05:54:52;;;;;;;12.80;5.10;;;;;;;;;;5111246;28;20118;-81
2022/04/26 05:57:18;;;;;;;12.68;5.40;;;;;;;;;;5110687;28;20036;-82
2022/04/26 05:59:45;;;;;;;12.88;4.68;;;;;;;;;;5110613;28;20380;-78
2022/04/26 06:02:11;;;;;;;13.25;5.13;;;;;;;;;;5110353;28;20035;-80
2022/04/26 06:04:38;;;;;;;9.95;4.03;;;;;;;;;;5110818;28;20036;-81
2022/04/26 06:07:04;;;;;;;9.95;3.80;;;;;;;;;;5110430;28;20048;-81
2022/04/26 06:09:30;;;;;;;12.73;3.92;;;;;;;;;;5110192;28;20038;-79
2022/04/26 06:11:57;;;;;;;9.93;3.75;;;;;;;;;;5093989;28;20047;-77
2022/04/26 06:14:24;;;;;;;10.43;4.18;;;;;;;;;;5109438;28;20040;-81
2022/04/26 06:16:50;;;;;;;12.48;4.00;;;;;;;;;;5110005;28;20044;-78
2022/04/26 06:19:16;;;;;;;12.00;3.75;;;;;;;;;;5075843;28;20050;-80
2022/04/26 06:21:42;;;;;;;8.43;3.35;;;;;;;;;;5110404;28;20069;-77
2022/04/26 06:24:08;;;;;;;7.20;3.42;;;;;;;;;;5110163;28;20031;-78
2022/04/26 06:26:35;;;;;;;7.15;3.22;;;;;;;;;;5109609;28;20067;-80
2022/04/26 06:29:01;;;;;;;10.35;3.53;;;;;;;;;;5109930;28;20040;-78
2022/04/26 06:31:27;;;;;;;7.38;3.20;;;;;;;;;;5076138;28;20368;-76
2022/04/26 06:33:53;;;;;;;13.43;3.22;;;;;;;;;;5110357;28;20314;-81
2022/04/26 06:36:19;;;;;;;9.70;3.58;;;;;;;;;;5093203;28;20031;-80
2022/04/26 06:38:45;;;;;;;9.57;3.30;;;;;;;;;;5093400;28;20038;-77
2022/04/26 06:41:11;;;;;;;7.22;3.30;;;;;;;;;;5109689;28;20032;-77
2022/04/26 06:43:37;;;;;;;9.05;3.50;;;;;;;;;;5109769;28;20032;-76
2022/04/26 06:46:03;;;;;;;8.68;3.45;;;;;;;;;;5109659;28;20123;-79
2022/04/26 06:48:30;;;;;;;9.02;3.47;;;;;;;;;;5109300;28;20039;-75
2022/04/26 06:50:56;;;;;;;8.45;3.45;;;;;;;;;;5093051;28;20407;-80
2022/04/26 06:53:23;;;;;;;9.27;3.47;;;;;;;;;;5109376;28;20046;-79
2022/04/26 06:55:49;;;;;;;9.40;3.50;;;;;;;;;;5092518;28;20077;-76
2022/04/26 06:58:15;;;;;;;9.70;3.95;;;;;;;;;;5109335;28;20111;-77
2022/04/26 07:00:41;;;;;;;9.30;3.22;;;;;;;;;;5110503;28;20040;-81
2022/04/26 07:03:07;;;;;;;6.40;3.13;;;;;;;;;;5092446;28;20152;-77
2022/04/26 07:05:34;;;;;;;7.38;3.30;;;;;;;;;;5092065;28;20047;-78
2022/04/26 07:08:01;;;;;;;6.65;2.85;;;;;;;;;;5109394;28;20527;-77
2022/04/26 07:10:28;;;;;;;8.10;3.22;;;;;;;;;;5091744;28;20042;-76
2022/04/26 07:12:55;;;;;;;6.63;2.75;;;;;;;;;;5109401;28;20039;-77
2022/04/26 07:15:21;;;;;;;6.75;2.88;;;;;;;;;;5108827;28;20273;-80
2022/04/26 07:17:47;;;;;;;6.80;2.90;;;;;;;;;;5108770;28;20039;-77
2022/04/26 07:20:13;;;;;;;10.25;3.20;;;;;;;;;;5091466;28;20047;-78
2022/04/26 07:22:39;;;;;;;6.85;2.92;;;;;;;;;;5092177;28;20036;-76
2022/04/26 07:25:12;;;;;;;7.07;3.63;;;;;;;;;;5108984;28;20097;-76
2022/04/26 07:27:38;;;;;;;9.55;3.38;;;;;;;;;;5109176;28;20039;-77
2022/04/26 07:30:04;;;;;;;5.78;3.30;;;;;;;;;;5109527;28;20057;-80
2022/04/26 07:35:15;;;;;;;8.38;3.33;;;;;;;;;;5109880;28;20036;-76
2022/04/26 07:37:41;;;;;;;8.55;3.42;;;;;;;;;;5110518;28;20477;-80
2022/04/26 07:40:09;;;;;;;7.30;3.30;;;;;;;;;;5109021;28;20118;-77
2022/04/26 07:42:35;;;;;;;8.20;3.30;;;;;;;;;;5108786;28;20546;-76
2022/04/26 07:45:01;;;;;;;6.28;3.40;;;;;;;;;;5108293;28;20058;-78
2022/04/26 07:47:30;;;;;;;8.52;3.30;;;;;;;;;;5109105;28;20032;-78
2022/04/26 07:49:56;;;;;;;8.52;3.33;;;;;;;;;;5108650;28;20062;-77
2022/04/26 07:52:23;;;;;;;7.05;3.00;;;;;;;;;;5108530;28;20411;-76
2022/04/26 07:54:50;;;;;;;5.32;3.03;;;;;;;;;;5110264;28;20123;-78
2022/04/26 07:57:16;;;;;;;6.00;2.90;;;;;;;;;;5107948;28;20039;-80
2022/04/26 07:59:43;;;;;;;5.78;2.70;;;;;;;;;;5108341;28;20122;-77
2022/04/26 08:02:12;;;;;;;4.60;2.60;;;;;;;;;;5107939;28;20035;-78
2022/04/26 08:04:41;;;;;;;6.88;2.92;;;;;;;;;;5108161;28;20038;-78
2022/04/26 08:07:07;;;;;;;9.18;3.00;;;;;;;;;;5108628;28;20119;-80
2022/04/26 08:09:35;;;;;;;5.70;2.60;;;;;;;;;;5108471;28;20406;-79
2022/04/26 08:12:02;;;;;;;8.35;3.17;;;;;;;;;;5091302;28;20047;-79
2022/04/26 08:14:29;;;;;;;7.07;2.60;;;;;;;;;;5108349;28;20455;-77
2022/04/26 08:16:55;;;;;;;8.18;2.80;;;;;;;;;;5109870;28;20062;-79
2022/04/26 08:19:21;;;;;;;6.88;2.80;;;;;;;;;;5108095;28;20123;-77
2022/04/26 08:21:47;;;;;;;6.80;2.85;;;;;;;;;;5107656;28;20096;-79
2022/04/26 08:29:43;;;;;;;8.35;2.80;;;;;;;;;;5108689;28;20075;-77
2022/04/26 08:32:10;;;;;;;4.82;2.72;;;;;;;;;;5091490;28;20031;-80
2022/04/26 08:34:36;;;;;;;9.63;3.05;;;;;;;;;;5108719;28;20046;-78
2022/04/26 08:37:02;;;;;;;5.88;2.78;;;;;;;;;;5107726;28;20051;-80
2022/04/26 08:39:28;;;;;;;7.43;2.65;;;;;;;;;;5107871;28;20391;-78
2022/04/26 08:41:58;;;;;;;6.70;2.50;;;;;;;;;;5108223;28;20043;-78
2022/04/26 08:44:27;;;;;;;5.80;2.88;;;;;;;;;;5108195;28;20032;-78
2022/04/26 08:52:23;;;;;;;4.40;2.53;;;;;;;;;;5111846;28;20483;-79
2022/04/26 08:54:49;;;;;;;6.13;2.40;;;;;;;;;;5112173;28;20391;-75
2022/04/26 08:57:16;;;;;;;6.90;2.70;;;;;;;;;;5111423;28;20044;-79
2022/04/26 08:59:49;;;;;;;6.30;2.80;;;;;;;;;;5112032;28;20100;-77
2022/04/26 09:02:19;;;;;;;5.88;2.60;;;;;;;;;;5099483;28;20078;-82
2022/04/26 09:04:46;;;;;;;6.85;2.60;;;;;;;;;;5095170;28;20031;-80
2022/04/26 09:07:13;;;;;;;6.07;2.72;;;;;;;;;;5111305;28;20040;-77
2022/04/26 09:09:40;;;;;;;5.35;2.17;;;;;;;;;;5095152;28;20495;-80
2022/04/26 09:12:11;;;;;;;5.22;2.40;;;;;;;;;;5111776;28;20061;-78
2022/04/26 09:14:39;;;;;;;5.88;2.75;;;;;;;;;;5112386;28;20055;-78
2022/04/26 09:17:10;;;;;;;6.35;2.53;;;;;;;;;;5110024;28;20043;-77
2022/04/26 09:19:44;;;;;;;4.13;2.00;;;;;;;;;;5110623;28;20084;-80
2022/04/26 09:22:16;;;;;;;5.85;2.30;;;;;;;;;;5094599;28;20050;-77
2022/04/26 09:24:57;;;;;;;4.70;2.60;;;;;;;;;;5111789;28;20043;-79
2022/04/26 09:27:23;;;;;;;7.25;2.30;;;;;;;;;;5110790;28;20047;-79
2022/04/26 09:29:49;;;;;;;3.88;2.30;;;;;;;;;;5113014;28;20051;-80
2022/04/26 09:32:16;;;;;;;6.10;2.60;;;;;;;;;;5093916;28;20040;-76
2022/04/26 09:34:42;;;;;;;5.55;2.50;;;;;;;;;;5111697;28;20459;-77
2022/04/26 09:37:08;;;;;;;4.40;2.20;;;;;;;;;;5110986;28;20045;-75
2022/04/26 09:39:34;;;;;;;5.78;2.50;;;;;;;;;;5111335;28;20616;-80
2022/04/26 09:42:01;;;;;;;4.50;2.40;;;;;;;;;;5110847;28;20075;-76
2022/04/26 09:44:34;;;;;;;4.13;2.55;;;;;;;;;;5111667;28;20071;-79
2022/04/26 09:47:00;;;;;;;6.30;2.63;;;;;;;;;;5110718;28;20058;-77
2022/04/26 09:49:26;;;;;;;8.05;2.50;;;;;;;;;;5111078;28;20560;-76
2022/04/26 09:51:59;;;;;;;5.72;2.35;;;;;;;;;;5093922;28;20040;-78
2022/04/26 09:54:25;;;;;;;6.70;2.55;;;;;;;;;;5110950;28;20046;-78
2022/04/26 09:56:51;;;;;;;5.25;2.30;;;;;;;;;;5110432;28;20425;-78
2022/04/26 09:59:28;;;;;;;7.65;2.30;;;;;;;;;;5110318;28;20039;-77
2022/04/26 10:01:55;;;;;;;5.05;2.40;;;;;;;;;;5110399;28;20127;-78
2022/04/26 10:04:22;;;;;;;4.78;2.45;;;;;;;;;;5110149;28;20130;-78
2022/04/26 10:06:53;;;;;;;5.40;2.60;;;;;;;;;;5110495;28;20043;-78
2022/04/26 10:09:19;;;;;;;4.13;2.38;;;;;;;;;;5110158;28;20031;-77
2022/04/26 10:11:45;;;;;;;4.45;2.20;;;;;;;;;;5110778;28;20510;-79
2022/04/26 10:14:12;;;;;;;6.55;2.47;;;;;;;;;;5110459;28;20047;-79
2022/04/26 10:16:39;;;;;;;6.25;2.20;;;;;;;;;;5110100;28;20035;-78
2022/04/26 10:19:09;;;;;;;5.47;2.72;;;;;;;;;;5109968;28;20498;-76
2022/04/26 10:21:38;;;;;;;4.93;2.60;;;;;;;;;;5110483;28;20055;-75
2022/04/26 10:24:10;;;;;;;4.82;2.40;;;;;;;;;;5110501;28;20548;-78
2022/04/26 10:26:37;;;;;;;5.90;2.38;;;;;;;;;;5109796;28;20403;-76
2022/04/26 10:29:12;;;;;;;5.50;2.53;;;;;;;;;;5110179;28;20100;-75
2022/04/26 10:31:40;;;;;;;5.85;2.50;;;;;;;;;;5110083;28;20534;-76
2022/04/26 10:34:16;;;;;;;5.47;2.10;;;;;;;;;;5111065;28;20028;-74
2022/04/26 10:36:45;;;;;;;5.85;2.30;;;;;;;;;;5111715;27;20042;-75
2022/04/26 10:39:12;;;;;;;4.95;2.30;;;;;;;;;;5111392;28;20035;-76
2022/04/26 10:41:39;;;;;;;3.83;2.25;;;;;;;;;;5111046;28;20046;-76
2022/04/26 10:44:17;;;;;;;5.72;2.70;;;;;;;;;;5110123;28;20493;-80
2022/04/26 10:46:44;;;;;;;10.20;2.72;;;;;;;;;;5111300;28;20070;-80
2022/04/26 10:49:26;;;;;;;5.10;2.17;;;;;;;;;;5110136;28;20131;-77
2022/04/26 10:51:56;;;;;;;5.50;2.30;;;;;;;;;;5109234;28;20043;-76
2022/04/26 10:54:41;;;;;;;4.57;2.33;;;;;;;;;;5108211;28;20036;-82
2022/04/26 10:57:07;;;;;;;5.82;2.60;;;;;;;;;;5092695;28;20366;-81
2022/04/26 10:59:33;;;;;;;6.65;2.58;;;;;;;;;;5109875;28;20039;-80
2022/04/26 11:01:59;;;;;;;8.25;2.10;;;;;;;;;;5110086;28;20070;-80
2022/04/26 11:04:25;;;;;;;3.40;2.30;;;;;;;;;;5108243;28;20088;-81
2022/04/26 11:06:51;;;;;;;4.15;2.25;;;;;;;;;;5109894;28;20119;-85
2022/04/26 11:09:18;;;;;;;4.68;2.35;;;;;;;;;;5108922;28;20039;-80
2022/04/26 11:11:50;;;;;;;5.93;2.40;;;;;;;;;;5109858;28;20062;-79
2022/04/26 11:14:20;;;;;;;5.07;2.53;;;;;;;;;;5109097;28;20043;-80
2022/04/26 11:16:54;;;;;;;3.85;2.30;;;;;;;;;;5109024;28;20047;-80
2022/04/26 11:19:33;;;;;;;4.80;2.20;;;;;;;;;;5091653;28;20092;-84
2022/04/26 11:22:09;;;;;;;5.88;2.03;;;;;;;;;;5109222;28;20497;-80
2022/04/26 11:30:20;;;;;;;;;;;;;;;;;;5143042;27;20204;-78
2022/04/26 11:32:47;;;;;;;7.60;2.63;;;;;;;;;;5111288;27;20360;-78
2022/04/26 11:35:19;;;;;;;5.38;2.47;;;;;;;;;;5099711;28;20043;-79
2022/04/26 11:38:05;;;;;;;5.38;2.60;;;;;;;;;;5121139;28;20150;-80
2022/04/26 11:40:37;;;;;;;8.65;2.50;;;;;;;;;;5124086;27;20048;-80
2022/04/26 11:43:08;;;;;;;5.93;2.60;;;;;;;;;;5096360;28;20515;-81
2022/04/26 11:45:36;;;;;;;4.28;1.85;;;;;;;;;;5107665;28;20386;-79
2022/04/26 11:48:03;;;;;;;3.55;2.38;;;;;;;;;;5115900;28;20051;-80
2022/04/26 11:50:30;;;;;;;4.35;2.47;;;;;;;;;;5089706;28;20511;-80
2022/04/26 11:53:01;;;;;;;6.47;2.20;;;;;;;;;;5103639;28;20038;-80
2022/04/26 11:55:31;;;;;;;6.93;2.47;;;;;;;;;;5086361;28;20472;-80
2022/04/26 11:58:07;;;;;;;4.53;2.30;;;;;;;;;;5104813;28;20479;-79
2022/04/26 12:00:34;;;;;;;5.65;2.25;;;;;;;;;;5099324;28;20035;-80
2022/04/26 12:03:02;;;;;;;5.53;2.30;;;;;;;;;;5120611;28;20041;-79
2022/04/26 12:05:29;;;;;;;7.13;2.47;;;;;;;;;;5084891;28;20040;-79
2022/04/26 12:07:55;;;;;;;4.70;2.35;;;;;;;;;;5076327;28;20467;-80
2022/04/26 12:10:28;;;;;;;5.80;2.20;;;;;;;;;;5123180;27;20092;-80
2022/04/26 12:12:58;;;;;;;6.50;2.63;;;;;;;;;;5113177;27;20043;-80
2022/04/26 12:15:25;;;;;;;5.30;2.50;;;;;;;;;;5109609;28;20384;-80
2022/04/26 12:18:04;;;;;;;6.05;2.40;;;;;;;;;;5113949;28;20036;-79
2022/04/26 12:20:30;;;;;;;4.47;2.40;;;;;;;;;;5105297;28;20394;-79
2022/04/26 12:22:57;;;;;;;3.78;1.80;;;;;;;;;;5096819;28;20075;-80
2022/04/26 12:25:23;;;;;;;4.57;2.10;;;;;;;;;;5072318;28;20040;-81
2022/04/26 12:28:06;;;;;;;6.18;2.40;;;;;;;;;;5120224;28;20658;-79
2022/04/26 12:30:32;;;;;;;4.60;2.00;;;;;;;;;;5112929;27;20043;-80
2022/04/26 12:32:59;;;;;;;6.13;2.60;;;;;;;;;;5086722;28;20032;-80
2022/04/26 12:35:25;;;;;;;4.47;2.22;;;;;;;;;;5105910;28;20458;-80
2022/04/26 12:38:10;;;;;;;9.43;2.40;;;;;;;;;;5116993;28;20088;-81
2022/04/26 12:40:37;;;;;;;8.32;2.30;;;;;;;;;;5109454;28;20035;-80
2022/04/26 12:43:03;;;;;;;4.65;2.05;;;;;;;;;;5096358;28;20032;-80
2022/04/26 12:45:29;;;;;;;4.90;2.10;;;;;;;;;;5105120;28;20040;-80
2022/04/26 12:50:55;;;;;;;5.85;2.53;;;;;;;;;;5094358;28;20047;-83
2022/04/26 12:53:32;;;;;;;4.05;2.30;;;;;;;;;;5086678;28;20124;-84
2022/04/26 12:56:08;;;;;;;4.70;2.03;;;;;;;;;;5104357;28;20505;-85
2022/04/26 12:58:38;;;;;;;5.95;2.40;;;;;;;;;;5084373;28;20052;-83
2022/04/26 13:01:05;;;;;;;3.53;2.20;;;;;;;;;;5099592;28;20046;-84
2022/04/26 13:03:31;;;;;;;6.28;2.45;;;;;;;;;;5098616;28;20040;-80
2022/04/26 13:06:25;;;;;;;5.03;2.05;;;;;;;;;;5093894;28;20036;-83
2022/04/26 13:08:51;;;;;;;6.40;2.50;;;;;;;;;;5095926;28;20055;-83
2022/04/26 13:11:20;;;;;;;5.68;2.45;;;;;;;;;;5102639;28;20051;-84
2022/04/26 13:13:48;;;;;;;6.90;2.40;;;;;;;;;;5104753;28;20056;-83
2022/04/26 13:16:14;;;;;;;4.68;2.15;;;;;;;;;;5081990;28;20047;-84
2022/04/26 13:18:41;;;;;;;3.40;2.33;;;;;;;;;;5102749;28;20036;-84
2022/04/26 13:21:07;;;;;;;5.32;2.55;;;;;;;;;;5090929;28;20036;-83
2022/04/26 13:23:34;;;;;;;4.25;2.05;;;;;;;;;;5098465;28;20048;-83
2022/04/26 13:26:01;;;;;;;9.45;2.85;;;;;;;;;;5096698;28;20031;-83
2022/04/26 13:28:28;;;;;;;5.22;2.20;;;;;;;;;;5103384;28;20079;-80
2022/04/26 13:30:54;;;;;;;4.20;2.47;;;;;;;;;;5101824;28;20093;-82
2022/04/26 13:33:20;;;;;;;6.80;2.85;;;;;;;;;;5086041;28;20548;-83
2022/04/26 13:35:47;;;;;;;5.47;2.22;;;;;;;;;;5100665;28;20036;-83
2022/04/26 13:38:16;;;;;;;3.42;2.15;;;;;;;;;;5104030;28;20045;-83
2022/04/26 13:40:43;;;;;;;4.75;2.38;;;;;;;;;;5083434;28;20043;-83
2022/04/26 13:43:10;;;;;;;4.43;2.30;;;;;;;;;;5078206;28;20043;-85
2022/04/26 13:45:36;;;;;;;7.22;2.53;;;;;;;;;;5088955;28;20479;-84
2022/04/26 13:48:08;;;;;;;4.95;2.30;;;;;;;;;;5094809;28;20075;-84
2022/04/26 13:50:35;;;;;;;5.38;2.20;;;;;;;;;;5102596;28;20127;-84
2022/04/26 13:53:01;;;;;;;6.32;2.50;;;;;;;;;;5098851;28;20044;-84
2022/04/26 13:55:27;;;;;;;4.75;2.55;;;;;;;;;;5086589;28;20047;-83
2022/04/26 13:57:54;;;;;;;4.05;2.53;;;;;;;;;;5086265;28;20039;-82
2022/04/26 14:00:21;;;;;;;6.85;2.60;;;;;;;;;;5078845;28;20044;-84
2022/04/26 14:02:50;;;;;;;5.97;2.33;;;;;;;;;;5106099;28;20035;-84
2022/04/26 14:05:17;;;;;;;5.68;2.50;;;;;;;;;;5102607;28;20051;-82
2022/04/26 14:07:46;;;;;;;4.95;2.80;;;;;;;;;;5102734;28;20040;-85
2022/04/26 14:10:18;;;;;;;11.82;3.05;;;;;;;;;;5085768;28;20490;-85
2022/04/26 14:12:47;;;;;;;4.82;2.45;;;;;;;;;;5104314;28;20048;-84
2022/04/26 14:23:32;;;;;;;5.73;2.70;;;;;;;;;;5099874;28;20035;-84
2022/04/26 14:25:58;;;;;;;6.22;2.42;;;;;;;;;;5103997;28;20055;-83
2022/04/26 14:28:24;;;;;;;6.13;2.55;;;;;;;;;;5094435;28;20039;-83
2022/04/26 14:30:51;;;;;;;4.65;2.63;;;;;;;;;;5066359;28;20122;-84
2022/04/26 14:33:18;;;;;;;4.70;2.25;;;;;;;;;;5082658;28;20043;-83
2022/04/26 14:35:44;;;;;;;6.50;2.50;;;;;;;;;;5085594;28;20032;-83
2022/04/26 14:38:11;;;;;;;5.20;2.53;;;;;;;;;;5099931;28;20074;-84
2022/04/26 14:40:37;;;;;;;5.20;2.72;;;;;;;;;;5114987;27;20429;-83
2022/04/26 14:43:04;;;;;;;4.47;2.40;;;;;;;;;;5081236;28;20119;-83
2022/04/26 14:45:32;;;;;;;4.38;2.60;;;;;;;;;;5080797;28;20046;-83
2022/04/26 14:48:00;;;;;;;6.25;2.63;;;;;;;;;;5103088;28;20525;-84
2022/04/26 14:50:27;;;;;;;4.38;2.55;;;;;;;;;;5101786;28;20047;-83
2022/04/26 14:52:53;;;;;;;6.20;3.00;;;;;;;;;;5100832;28;20044;-83
2022/04/26 14:55:20;;;;;;;5.72;2.75;;;;;;;;;;5108240;28;20036;-84
2022/04/26 14:57:46;;;;;;;5.53;2.50;;;;;;;;;;5085333;28;20043;-83
2022/04/26 15:00:12;;;;;;;4.93;2.70;;;;;;;;;;5084163;28;20043;-84
2022/04/26 15:02:38;;;;;;;6.15;3.05;;;;;;;;;;5082193;28;20038;-84
2022/04/26 15:05:07;;;;;;;4.28;2.53;;;;;;;;;;5077296;28;20078;-83
2022/04/26 15:09:42;;;;;;;8.25;2.90;;;;;;;;;;5101187;28;20108;-82
2022/04/26 15:10:19;;;;;;;5.32;3.70;;;;;;;;;;5094968;28;20582;-82
2022/04/26 15:18:15;;;;;;;6.43;2.70;;;;;;;;;;5086550;28;20051;-84
2022/04/26 15:20:48;;;;;;;4.63;2.30;;;;;;;;;;5077816;28;20373;-83
2022/04/26 15:23:15;;;;;;;8.77;2.97;;;;;;;;;;5096403;28;20111;-83
2022/04/26 15:25:41;;;;;;;4.53;2.60;;;;;;;;;;5096036;28;20437;-83
2022/04/26 15:28:10;;;;;;;6.38;2.65;;;;;;;;;;5100083;28;20062;-82
2022/04/26 15:30:42;;;;;;;6.45;3.53;;;;;;;;;;5076074;28;20044;-84
2022/04/26 15:33:08;;;;;;;4.00;2.22;;;;;;;;;;5097481;28;20043;-83
2022/04/26 15:35:34;;;;;;;5.00;2.72;;;;;;;;;;5075390;28;20036;-83
2022/04/26 15:38:00;;;;;;;5.85;2.85;;;;;;;;;;5079743;28;20391;-83
2022/04/26 15:40:26;;;;;;;6.30;2.45;;;;;;;;;;5076091;28;20035;-83
2022/04/26 15:42:52;;;;;;;6.25;2.50;;;;;;;;;;5079310;28;20047;-84
2022/04/26 15:45:18;;;;;;;5.95;2.60;;;;;;;;;;5101655;28;20081;-83
2022/04/26 15:47:44;;;;;;;6.65;2.47;;;;;;;;;;5100736;28;20036;-83
2022/04/26 15:50:11;;;;;;;6.07;2.95;;;;;;;;;;5096173;28;20395;-84
2022/04/26 15:52:39;;;;;;;8.63;2.97;;;;;;;;;;5103765;28;20428;-84
2022/04/26 15:55:06;;;;;;;7.20;2.80;;;;;;;;;;5086636;28;20093;-83
2022/04/26 15:57:33;;;;;;;6.20;2.92;;;;;;;;;;5092909;28;20063;-84
2022/04/26 16:00:00;;;;;;;6.43;3.10;;;;;;;;;;5098092;28;20046;-83
2022/04/26 16:02:27;;;;;;;5.97;2.92;;;;;;;;;;5062124;28;20046;-83
2022/04/26 16:04:53;;;;;;;7.35;3.00;;;;;;;;;;5082043;28;20565;-84
2022/04/26 16:07:19;;;;;;;7.20;2.92;;;;;;;;;;5093098;28;20039;-81
2022/04/26 16:20:44;;;;;;;6.35;2.85;;;;;;;;;;5103776;28;20044;-83
2022/04/26 16:23:10;;;;;;;7.15;2.80;;;;;;;;;;5101835;28;20536;-83
2022/04/26 16:25:36;;;;;;;7.13;3.20;;;;;;;;;;5079304;28;20036;-83
2022/04/26 16:28:03;;;;;;;7.32;3.08;;;;;;;;;;5103357;28;20061;-82
2022/04/26 16:30:30;;;;;;;6.85;2.80;;;;;;;;;;5103324;27;20510;-84
2022/04/26 16:33:01;;;;;;;7.57;3.08;;;;;;;;;;5081966;28;20036;-83
2022/04/26 16:35:27;;;;;;;5.55;2.70;;;;;;;;;;5097669;28;20470;-83
2022/04/26 16:37:55;;;;;;;6.45;2.80;;;;;;;;;;5094633;28;20119;-84
2022/04/26 16:40:21;;;;;;;5.45;2.95;;;;;;;;;;5095748;28;20059;-84
2022/04/26 16:42:48;;;;;;;6.93;3.10;;;;;;;;;;5106762;28;20043;-83
2022/04/26 16:45:14;;;;;;;5.85;3.10;;;;;;;;;;5096003;28;20051;-83
2022/04/26 16:47:40;;;;;;;7.20;3.00;;;;;;;;;;5100313;28;20065;-83
2022/04/26 16:50:07;;;;;;;5.38;2.80;;;;;;;;;;5089450;28;20452;-82
2022/04/26 16:52:33;;;;;;;7.85;2.90;;;;;;;;;;5097481;28;20042;-83
2022/04/26 16:54:59;;;;;;;6.88;2.60;;;;;;;;;;5088600;28;20039;-83
2022/04/26 16:57:28;;;;;;;9.25;3.25;;;;;;;;;;5106799;28;20177;-83
2022/04/26 16:59:58;;;;;;;7.95;3.63;;;;;;;;;;5094713;28;20043;-83
2022/04/26 17:02:25;;;;;;;7.57;3.20;;;;;;;;;;5096205;28;20048;-83
2022/04/26 17:04:51;;;;;;;5.80;2.80;;;;;;;;;;5081729;28;20118;-83
2022/04/26 17:07:17;;;;;;;6.18;3.25;;;;;;;;;;5106861;28;20495;-83
2022/04/26 17:09:43;;;;;;;8.00;2.95;;;;;;;;;;5109464;28;20039;-83
2022/04/26 17:12:12;;;;;;;5.07;2.53;;;;;;;;;;5076608;28;20085;-82
2022/04/26 17:14:39;;;;;;;5.93;2.90;;;;;;;;;;5075942;28;20036;-83
2022/04/26 17:17:05;;;;;;;6.90;2.70;;;;;;;;;;5095333;28;20050;-78
2022/04/26 17:19:32;;;;;;;6.38;3.03;;;;;;;;;;5075399;28;20488;-80
2022/04/26 17:21:59;;;;;;;6.53;2.63;;;;;;;;;;5089606;28;20483;-79
2022/04/26 17:27:11;;;;;;;5.97;2.72;;;;;;;;;;5100713;28;20051;-83
2022/04/26 17:29:37;;;;;;;5.68;2.67;;;;;;;;;;5059518;28;20625;-82
2022/04/26 17:32:04;;;;;;;8.43;2.58;;;;;;;;;;5115218;27;20405;-82
2022/04/26 17:34:30;;;;;;;6.63;2.90;;;;;;;;;;5101908;28;20051;-82
2022/04/26 17:36:56;;;;;;;8.45;3.00;;;;;;;;;;5101027;28;20499;-83
2022/04/26 17:39:23;;;;;;;6.03;2.70;;;;;;;;;;5099773;28;20472;-82
2022/04/26 17:41:49;;;;;;;6.30;2.60;;;;;;;;;;5077064;28;20046;-83
2022/04/26 17:44:16;;;;;;;6.25;3.20;;;;;;;;;;5104845;28;20047;-83
2022/04/26 17:46:43;;;;;;;5.78;2.65;;;;;;;;;;5101315;28;20044;-83
2022/04/26 17:49:09;;;;;;;7.88;3.03;;;;;;;;;;5099938;28;20376;-84
2022/04/26 17:51:35;;;;;;;4.95;3.10;;;;;;;;;;5085364;28;20124;-83
2022/04/26 17:56:46;;;;;;;6.95;2.80;;;;;;;;;;5109256;28;20036;-82
2022/04/26 17:59:12;;;;;;;5.43;2.72;;;;;;;;;;5096888;28;20183;-82
2022/04/26 18:01:39;;;;;;;5.03;2.97;;;;;;;;;;5097576;28;20092;-83
2022/04/26 18:04:06;;;;;;;6.45;2.95;;;;;;;;;;5084682;28;20199;-82
2022/04/26 18:06:32;;;;;;;7.40;3.05;;;;;;;;;;5098386;28;20036;-84
2022/04/26 18:08:58;;;;;;;8.25;3.17;;;;;;;;;;5084295;28;20036;-83
2022/04/26 18:11:24;;;;;;;6.32;2.85;;;;;;;;;;5093971;28;20046;-82
2022/04/26 18:13:54;;;;;;;7.80;3.13;;;;;;;;;;5112232;27;20032;-83
2022/04/26 18:16:20;;;;;;;8.25;2.97;;;;;;;;;;5103524;28;20089;-82
2022/04/26 18:18:47;;;;;;;4.63;2.80;;;;;;;;;;5079977;28;20070;-84
2022/04/26 18:21:13;;;;;;;4.82;2.88;;;;;;;;;;5094413;28;20097;-83
2022/04/26 18:23:39;;;;;;;5.55;3.00;;;;;;;;;;5072867;28;20044;-83
2022/04/26 18:26:11;;;;;;;6.90;3.15;;;;;;;;;;5071410;28;20040;-83
2022/04/26 18:28:41;;;;;;;5.60;2.90;;;;;;;;;;5102790;28;20040;-83
2022/04/26 18:31:08;;;;;;;7.60;3.97;;;;;;;;;;5103335;28;20047;-84
2022/04/26 18:33:37;;;;;;;8.73;3.50;;;;;;;;;;5092229;28;20036;-84
2022/04/26 18:36:07;;;;;;;6.15;3.00;;;;;;;;;;5091999;28;20095;-82
2022/04/26 18:38:34;;;;;;;7.07;3.58;;;;;;;;;;5088582;28;20043;-82
2022/04/26 18:41:00;;;;;;;7.60;3.38;;;;;;;;;;5096478;28;20078;-83
2022/04/26 18:43:27;;;;;;;8.45;3.80;;;;;;;;;;5095974;28;20117;-82
2022/04/26 18:45:53;;;;;;;9.63;3.47;;;;;;;;;;5093031;28;20181;-82
2022/04/26 18:48:19;;;;;;;7.38;3.67;;;;;;;;;;5092247;28;20047;-82
2022/04/26 18:50:46;;;;;;;7.38;3.40;;;;;;;;;;5100332;28;20031;-82
2022/04/26 18:53:12;;;;;;;8.57;3.70;;;;;;;;;;5095774;28;20445;-82
2022/04/26 18:55:38;;;;;;;6.55;3.70;;;;;;;;;;5090549;28;20047;-82
2022/04/26 18:58:05;;;;;;;8.40;3.90;;;;;;;;;;5092294;28;20067;-82
2022/04/26 19:00:31;;;;;;;7.40;3.85;;;;;;;;;;5101615;28;21253;-82
2022/04/26 19:02:58;;;;;;;8.57;3.90;;;;;;;;;;5092701;28;20036;-83
2022/04/26 19:05:24;;;;;;;8.00;3.95;;;;;;;;;;5083838;28;20040;-82
2022/04/26 19:07:51;;;;;;;7.57;4.22;;;;;;;;;;5094282;28;20561;-82
2022/04/26 19:13:01;;;;;;;11.68;7.20;;;;;;;;;;5106996;27;20048;-83
2022/04/26 19:15:27;;;;;;;30.35;20.45;;;;;;;;;;5081453;28;20191;-82
2022/04/26 19:17:53;;;;;;;97.80;74.55;;;;;;;;;;5077184;28;20052;-82
2022/04/26 19:20:19;;;;;;;162.98;76.72;;;;;;;;;;5097257;28;20123;-82